createdAt,value
2023-04-18T00:01:28.883Z,66.04
2023-04-18T00:04:34.049Z,66.59
2023-04-18T00:07:38.097Z,66.38
2023-04-18T00:10:40.656Z,66.10
2023-04-18T00:13:43.212Z,65.89
2023-04-18T00:16:46.271Z,66.63
2023-04-18T00:19:48.905Z,66.08
2023-04-18T00:22:53.270Z,66.81
2023-04-18T00:25:55.762Z,66.74
2023-04-18T00:28:58.377Z,66.39
2023-04-18T00:32:00.915Z,66.10
2023-04-18T00:35:04.122Z,66.43
2023-04-18T00:38:07.951Z,66.25
2023-04-18T00:41:10.449Z,66.68
2023-04-18T00:44:13.146Z,66.30
2023-04-18T00:47:16.785Z,66.12
2023-04-18T00:50:19.879Z,66.34
2023-04-18T00:53:23.995Z,66.30
2023-04-18T00:56:26.773Z,66.49
2023-04-18T00:59:29.288Z,66.65
2023-04-18T01:02:32.023Z,67.05
2023-04-18T01:05:35.082Z,66.33
2023-04-18T01:08:39.059Z,66.45
2023-04-18T01:11:41.689Z,66.65
2023-04-18T01:14:44.285Z,66.46
2023-04-18T01:17:47.279Z,66.63
2023-04-18T01:20:51.346Z,66.73
2023-04-18T01:23:55.367Z,67.22
2023-04-18T01:26:59.700Z,67.14
2023-04-18T01:30:02.299Z,66.73
2023-04-18T01:33:05.891Z,66.68
2023-04-18T01:36:08.463Z,66.42
2023-04-18T01:39:11.011Z,67.21
2023-04-18T01:42:14.995Z,67.23
2023-04-18T01:45:18.134Z,66.74
2023-04-18T01:48:20.659Z,66.58
2023-04-18T01:51:23.476Z,67.14
2023-04-18T01:54:26.015Z,67.10
2023-04-18T01:57:29.903Z,66.77
2023-04-18T02:00:32.439Z,66.43
2023-04-18T02:03:35.135Z,66.75
2023-04-18T02:06:37.839Z,66.75
2023-04-18T02:09:40.400Z,67.93
2023-04-18T02:12:44.297Z,67.58
2023-04-18T02:15:47.020Z,67.34
2023-04-18T02:18:52.417Z,68.01
2023-04-18T02:21:55.489Z,67.95
2023-04-18T02:24:58.054Z,67.76
2023-04-18T02:28:02.005Z,67.70
2023-04-18T02:31:04.514Z,67.90
2023-04-18T02:34:07.488Z,68.08
2023-04-18T02:37:10.053Z,67.79
2023-04-18T02:40:13.976Z,67.91
2023-04-18T02:43:17.835Z,68.15
2023-04-18T02:46:20.397Z,68.16
2023-04-18T02:49:23.050Z,68.17
2023-04-18T02:52:26.132Z,67.96
2023-04-18T02:55:28.717Z,68.09
2023-04-18T02:58:34.693Z,68.20
2023-04-18T03:01:37.452Z,67.95
2023-04-18T03:04:40.158Z,68.00
2023-04-18T03:07:42.738Z,67.88
2023-04-18T03:10:45.327Z,67.63
2023-04-18T03:13:49.254Z,67.52
2023-04-18T03:16:54.599Z,67.37
2023-04-18T03:19:57.845Z,67.59
2023-04-18T03:23:00.840Z,67.67
2023-04-18T03:26:03.327Z,67.72
2023-04-18T03:29:07.296Z,68.03
2023-04-18T03:32:09.816Z,67.91
2023-04-18T03:35:12.611Z,68.18
2023-04-18T03:38:15.266Z,68.07
2023-04-18T03:41:17.719Z,68.04
2023-04-18T03:44:21.607Z,68.32
2023-04-18T03:47:24.164Z,68.17
2023-04-18T03:50:26.855Z,68.03
2023-04-18T03:53:30.071Z,68.06
2023-04-18T03:56:33.109Z,68.48
2023-04-18T03:59:37.244Z,68.26
2023-04-18T04:02:39.961Z,68.81
2023-04-18T04:05:42.687Z,68.49
2023-04-18T04:08:45.259Z,67.78
2023-04-18T04:11:48.453Z,68.21
2023-04-18T04:14:52.396Z,68.12
2023-04-18T04:17:54.993Z,68.21
2023-04-18T04:20:57.994Z,68.23
2023-04-18T04:24:01.376Z,68.19
2023-04-18T04:27:04.141Z,68.00
2023-04-18T04:30:11.850Z,67.53
2023-04-18T04:33:15.782Z,68.45
2023-04-18T04:36:19.193Z,67.99
2023-04-18T04:39:24.617Z,67.80
2023-04-18T04:42:28.544Z,67.59
2023-04-18T04:45:33.104Z,67.41
2023-04-18T04:48:35.788Z,67.56
2023-04-18T04:51:38.417Z,67.76
2023-04-18T04:54:41.045Z,67.81
2023-04-18T04:57:44.712Z,67.93
2023-04-18T05:00:50.784Z,67.37
2023-04-18T05:03:53.626Z,67.29
2023-04-18T05:06:56.516Z,67.44
2023-04-18T05:09:59.305Z,66.91
2023-04-18T05:13:02.073Z,67.43
2023-04-18T05:16:06.756Z,66.83
2023-04-18T05:19:09.408Z,67.00
2023-04-18T05:22:12.110Z,67.04
2023-04-18T05:25:14.713Z,66.65
2023-04-18T05:28:17.328Z,66.73
2023-04-18T05:31:21.778Z,66.25
2023-04-18T05:34:24.630Z,65.09
2023-04-18T05:37:27.171Z,64.99
2023-04-18T05:40:30.394Z,65.19
2023-04-18T05:43:33.079Z,65.72
2023-04-18T05:46:37.115Z,64.79
2023-04-18T05:49:39.791Z,64.00
2023-04-18T05:52:42.535Z,64.30
2023-04-18T05:55:46.639Z,64.41
2023-04-18T05:58:51.216Z,63.95
2023-04-18T06:01:55.447Z,63.91
2023-04-18T06:04:58.445Z,62.74
2023-04-18T06:08:01.181Z,63.31
2023-04-18T06:11:04.267Z,62.50
2023-04-18T06:14:07.939Z,63.26
2023-04-18T06:17:12.652Z,62.51
2023-04-18T06:20:15.356Z,61.92
2023-04-18T06:23:17.948Z,63.02
2023-04-18T06:26:20.796Z,63.54
2023-04-18T06:29:23.385Z,62.70
2023-04-18T06:32:27.642Z,62.74
2023-04-18T06:35:32.027Z,61.70
2023-04-18T06:38:34.720Z,61.71
2023-04-18T06:41:37.421Z,60.62
2023-04-18T06:44:40.094Z,59.99
2023-04-18T06:47:44.191Z,60.41
2023-04-18T06:50:46.967Z,61.12
2023-04-18T06:53:52.704Z,61.33
2023-04-18T06:56:55.922Z,61.31
2023-04-18T06:59:58.506Z,60.92
2023-04-18T07:03:06.577Z,61.24
2023-04-18T07:06:10.978Z,61.52
2023-04-18T07:09:13.708Z,62.46
2023-04-18T07:12:16.374Z,62.51
2023-04-18T07:15:19.312Z,61.30
2023-04-18T07:18:34.259Z,60.39
2023-04-18T07:21:43.066Z,60.06
2023-04-18T07:24:45.714Z,59.55
2023-04-18T07:27:48.512Z,59.25
2023-04-18T07:30:51.451Z,60.70
2023-04-18T07:33:56.217Z,60.50
2023-04-18T07:36:58.791Z,60.42
2023-04-18T07:40:01.323Z,60.21
2023-04-18T07:43:03.896Z,60.70
2023-04-18T07:46:07.222Z,60.55
2023-04-18T07:49:11.313Z,60.46
2023-04-18T07:52:14.285Z,59.54
2023-04-18T07:55:17.112Z,58.83
2023-04-18T07:58:19.741Z,58.35
2023-04-18T08:01:24.305Z,57.33
2023-04-18T08:04:30.079Z,56.60
2023-04-18T08:07:33.281Z,55.47
2023-04-18T08:10:35.912Z,53.66
2023-04-18T08:13:38.776Z,52.50
2023-04-18T08:16:41.512Z,52.81
2023-04-18T08:19:46.268Z,52.86
2023-04-18T08:23:05.110Z,53.29
2023-04-18T08:26:09.400Z,53.76
2023-04-18T08:29:12.328Z,53.63
2023-04-18T08:32:15.162Z,53.85
2023-04-18T08:35:19.244Z,52.82
2023-04-18T08:38:21.943Z,52.15
2023-04-18T08:41:24.804Z,51.26
2023-04-18T08:44:28.671Z,49.93
2023-04-18T08:47:31.687Z,49.66
2023-04-18T08:50:36.231Z,48.24
2023-04-18T08:53:39.354Z,46.43
2023-04-18T08:56:42.246Z,45.15
2023-04-18T08:59:48.356Z,45.15
2023-04-18T09:02:56.532Z,45.33
2023-04-18T09:06:13.988Z,46.82
2023-04-18T09:09:16.608Z,48.19
2023-04-18T09:12:23.249Z,49.74
2023-04-18T09:15:29.124Z,50.91
2023-04-18T09:18:32.475Z,51.04
2023-04-18T09:21:38.369Z,51.41
2023-04-18T09:24:49.095Z,52.32
2023-04-18T09:27:51.951Z,52.59
2023-04-18T09:30:56.092Z,52.65
2023-04-18T09:34:00.617Z,52.92
2023-04-18T09:37:09.165Z,53.72
2023-04-18T09:40:19.046Z,52.76
2023-04-18T09:43:22.486Z,51.71
2023-04-18T09:46:25.387Z,51.20
2023-04-18T09:49:28.424Z,50.91
2023-04-18T09:52:35.973Z,49.94
2023-04-18T09:55:40.075Z,48.19
2023-04-18T09:58:43.132Z,48.71
2023-04-18T10:01:48.340Z,46.69
2023-04-18T10:04:52.205Z,44.65
2023-04-18T10:07:56.597Z,43.52
2023-04-18T10:10:59.475Z,43.13
2023-04-18T10:14:04.684Z,43.12
2023-04-18T10:17:07.398Z,43.98
2023-04-18T10:20:11.282Z,45.20
2023-04-18T10:23:37.294Z,43.10
2023-04-18T10:26:47.517Z,41.80
2023-04-18T10:29:52.006Z,42.13
2023-04-18T10:32:56.377Z,41.88
2023-04-18T10:36:00.689Z,41.94
2023-04-18T10:39:22.375Z,41.26
2023-04-18T10:42:58.594Z,40.63
2023-04-18T10:46:23.965Z,40.71
2023-04-18T10:49:33.400Z,40.18
2023-04-18T10:52:36.105Z,40.87
2023-04-18T10:55:45.092Z,41.73
2023-04-18T10:58:51.494Z,41.20
2023-04-18T11:01:57.811Z,40.94
2023-04-18T11:05:02.825Z,40.44
2023-04-18T11:08:06.341Z,41.28
2023-04-18T11:11:11.353Z,41.19
2023-04-18T11:14:14.299Z,42.09
2023-04-18T11:17:20.996Z,43.06
2023-04-18T11:20:23.859Z,44.35
2023-04-18T11:23:26.574Z,43.97
2023-04-18T11:26:30.741Z,42.98
2023-04-18T11:29:33.574Z,43.16
2023-04-18T11:32:36.446Z,42.76
2023-04-18T11:35:39.922Z,42.06
2023-04-18T11:38:42.688Z,42.42
2023-04-18T11:41:50.447Z,42.91
2023-04-18T11:44:53.163Z,43.83
2023-04-18T11:47:58.141Z,46.38
2023-04-18T11:51:01.106Z,47.62
2023-04-18T11:54:04.049Z,49.00
2023-04-18T11:57:19.735Z,48.49
2023-04-18T12:00:33.554Z,47.07
2023-04-18T12:03:36.852Z,45.57
2023-04-18T12:06:49.046Z,44.66
2023-04-18T12:09:53.468Z,44.77
2023-04-18T12:12:59.768Z,45.53
2023-04-18T12:16:03.461Z,45.56
2023-04-18T12:19:11.248Z,45.69
2023-04-18T12:22:16.890Z,45.09
2023-04-18T12:25:26.253Z,44.20
2023-04-18T12:28:32.361Z,43.87
2023-04-18T12:31:35.028Z,42.60
2023-04-18T12:34:37.750Z,41.35
2023-04-18T12:37:40.740Z,41.05
2023-04-18T12:40:43.485Z,40.26
2023-04-18T12:43:47.442Z,41.12
2023-04-18T12:46:49.984Z,41.77
2023-04-18T12:49:52.760Z,40.91
2023-04-18T12:52:58.703Z,41.65
2023-04-18T12:56:01.460Z,40.96
2023-04-18T12:59:05.791Z,41.04
2023-04-18T13:02:08.488Z,40.31
2023-04-18T13:05:12.407Z,40.78
2023-04-18T13:08:17.617Z,40.04
2023-04-18T13:11:22.586Z,39.45
2023-04-18T13:14:26.770Z,40.80
2023-04-18T13:17:29.609Z,39.76
2023-04-18T13:20:32.509Z,39.29
2023-04-18T13:23:35.439Z,39.88
2023-04-18T13:26:38.089Z,40.19
2023-04-18T13:29:43.470Z,39.87
2023-04-18T13:32:46.095Z,39.86
2023-04-18T13:35:48.823Z,39.24
2023-04-18T13:38:52.245Z,37.97
2023-04-18T13:41:55.326Z,36.79
2023-04-18T13:45:00.033Z,38.92
2023-04-18T13:48:02.730Z,39.67
2023-04-18T13:51:07.072Z,39.19
2023-04-18T13:54:09.656Z,39.97
2023-04-18T13:57:12.496Z,40.55
2023-04-18T14:00:19.138Z,41.49
2023-04-18T14:03:21.979Z,42.40
2023-04-18T14:06:24.881Z,42.29
2023-04-18T14:09:27.878Z,42.63
2023-04-18T14:12:31.365Z,42.51
2023-04-18T14:15:36.145Z,42.63
2023-04-18T14:18:39.290Z,41.53
2023-04-18T14:21:41.963Z,41.21
2023-04-18T14:24:44.654Z,40.75
2023-04-18T14:27:48.782Z,41.30
2023-04-18T14:30:55.246Z,41.81
2023-04-18T14:33:58.061Z,41.51
2023-04-18T14:37:01.111Z,40.58
2023-04-18T14:40:05.458Z,41.31
2023-04-18T14:43:08.186Z,42.14
2023-04-18T14:46:17.150Z,41.89
2023-04-18T14:49:20.028Z,40.74
2023-04-18T14:52:22.672Z,40.23
2023-04-18T14:55:25.640Z,39.90
2023-04-18T14:58:28.224Z,40.18
2023-04-18T15:01:32.349Z,39.73
2023-04-18T15:04:35.126Z,41.04
2023-04-18T15:07:38.020Z,41.26
2023-04-18T15:10:42.683Z,40.54
2023-04-18T15:13:47.516Z,39.67
2023-04-18T15:16:52.068Z,39.00
2023-04-18T15:19:54.723Z,39.44
2023-04-18T15:22:57.731Z,39.54
2023-04-18T15:26:00.498Z,39.84
2023-04-18T15:29:03.859Z,39.71
2023-04-18T15:32:08.008Z,41.00
2023-04-18T15:35:10.829Z,40.81
2023-04-18T15:38:14.382Z,40.81
2023-04-18T15:41:17.098Z,42.13
2023-04-18T15:44:19.850Z,42.89
2023-04-18T15:47:24.140Z,42.86
2023-04-18T15:50:27.097Z,43.10
2023-04-18T15:53:29.799Z,43.62
2023-04-18T15:56:33.820Z,43.72
2023-04-18T15:59:37.126Z,44.11
2023-04-18T16:02:41.117Z,44.62
2023-04-18T16:05:43.883Z,44.89
2023-04-18T16:08:46.562Z,45.36
2023-04-18T16:11:49.394Z,45.35
2023-04-18T16:14:52.112Z,46.30
2023-04-18T16:17:56.250Z,46.09
2023-04-18T16:20:59.392Z,46.60
2023-04-18T16:24:02.207Z,46.77
2023-04-18T16:27:05.669Z,46.88
2023-04-18T16:30:10.123Z,46.97
2023-04-18T16:33:14.590Z,46.81
2023-04-18T16:36:17.315Z,47.13
2023-04-18T16:39:19.892Z,47.20
2023-04-18T16:42:22.612Z,47.47
2023-04-18T16:45:25.714Z,47.41
2023-04-18T16:48:30.147Z,47.68
2023-04-18T16:51:33.837Z,48.01
2023-04-18T16:54:36.953Z,48.17
2023-04-18T16:57:39.840Z,48.67
2023-04-18T17:00:42.720Z,48.60
2023-04-18T17:03:46.930Z,49.20
2023-04-18T17:06:51.880Z,50.05
2023-04-18T17:09:54.753Z,49.63
2023-04-18T17:12:57.484Z,49.63
2023-04-18T17:16:00.090Z,49.46
2023-04-18T17:19:03.959Z,49.96
2023-04-18T17:22:06.609Z,49.97
2023-04-18T17:25:10.254Z,49.99
2023-04-18T17:28:14.327Z,50.19
2023-04-18T17:31:17.214Z,50.45
2023-04-18T17:34:21.428Z,50.26
2023-04-18T17:37:24.314Z,50.85
2023-04-18T17:40:27.802Z,50.90
2023-04-18T17:43:30.952Z,50.99
2023-04-18T17:46:33.561Z,51.69
2023-04-18T17:49:37.476Z,51.42
2023-04-18T17:52:40.044Z,51.43
2023-04-18T17:55:42.542Z,51.81
2023-04-18T17:58:45.080Z,51.93
2023-04-18T18:01:47.673Z,52.52
2023-04-18T18:04:51.746Z,52.73
2023-04-18T18:07:56.204Z,53.21
2023-04-18T18:10:59.237Z,53.14
2023-04-18T18:14:02.022Z,53.43
2023-04-18T18:17:06.154Z,53.80
2023-04-18T18:20:11.649Z,53.76
2023-04-18T18:23:14.138Z,54.31
2023-04-18T18:26:16.655Z,54.89
2023-04-18T18:29:19.740Z,55.49
2023-04-18T18:32:22.652Z,55.65
2023-04-18T18:35:26.581Z,56.08
2023-04-18T18:38:29.131Z,56.13
2023-04-18T18:41:31.696Z,56.23
2023-04-18T18:44:34.426Z,56.82
2023-04-18T18:47:39.605Z,56.98
2023-04-18T18:50:43.992Z,57.35
2023-04-18T18:53:47.043Z,57.32
2023-04-18T18:56:49.621Z,57.78
2023-04-18T18:59:54.513Z,58.11
2023-04-18T19:02:58.338Z,58.47
2023-04-18T19:06:03.799Z,58.47
2023-04-18T19:09:07.435Z,58.34
2023-04-18T19:12:10.130Z,58.11
2023-04-18T19:15:13.088Z,57.87
2023-04-18T19:18:15.739Z,58.00
2023-04-18T19:21:20.178Z,57.63
2023-04-18T19:24:22.661Z,57.97
2023-04-18T19:27:25.201Z,57.80
2023-04-18T19:30:27.708Z,58.32
2023-04-18T19:33:30.307Z,58.15
2023-04-18T19:36:34.236Z,58.58
2023-04-18T19:39:36.730Z,58.75
2023-04-18T19:42:39.357Z,58.61
2023-04-18T19:45:41.898Z,58.42
2023-04-18T19:48:44.418Z,58.58
2023-04-18T19:51:48.889Z,58.94
2023-04-18T19:54:52.963Z,59.06
2023-04-18T19:57:56.569Z,58.58
2023-04-18T20:00:58.913Z,58.54
2023-04-18T20:04:01.828Z,59.08
2023-04-18T20:07:06.407Z,59.00
2023-04-18T20:10:10.393Z,58.96
2023-04-18T20:13:13.039Z,59.04
2023-04-18T20:16:16.773Z,59.20
2023-04-18T20:19:19.495Z,59.14
2023-04-18T20:22:24.747Z,58.87
2023-04-18T20:25:27.371Z,58.86
2023-04-18T20:28:30.076Z,59.17
2023-04-18T20:31:32.713Z,58.80
2023-04-18T20:34:35.944Z,59.11
2023-04-18T20:37:41.458Z,59.26
2023-04-18T20:40:44.967Z,59.05
2023-04-18T20:43:47.681Z,58.89
2023-04-18T20:46:50.378Z,59.50
2023-04-18T20:49:52.885Z,60.06
2023-04-18T20:52:56.714Z,59.48
2023-04-18T20:55:59.350Z,59.66
2023-04-18T20:59:01.840Z,60.24
2023-04-18T21:02:04.466Z,59.70
2023-04-18T21:05:07.678Z,59.64
2023-04-18T21:08:11.761Z,60.42
2023-04-18T21:11:14.327Z,59.83
2023-04-18T21:14:17.284Z,60.42
2023-04-18T21:17:20.125Z,60.48
2023-04-18T21:20:22.724Z,60.70
2023-04-18T21:23:26.647Z,60.46
2023-04-18T21:26:29.274Z,60.84
2023-04-18T21:29:31.875Z,60.67
2023-04-18T21:32:34.432Z,60.52
2023-04-18T21:35:37.047Z,61.04
2023-04-18T21:38:40.916Z,61.28
2023-04-18T21:41:43.456Z,61.11
2023-04-18T21:44:45.983Z,61.41
2023-04-18T21:47:51.211Z,61.14
2023-04-18T21:50:55.015Z,61.22
2023-04-18T21:53:59.036Z,61.04
2023-04-18T21:57:02.616Z,61.16
2023-04-18T22:00:07.219Z,61.24
2023-04-18T22:03:11.273Z,61.69
2023-04-18T22:06:13.903Z,62.07
2023-04-18T22:09:19.271Z,61.57
2023-04-18T22:12:21.791Z,61.31
2023-04-18T22:15:26.796Z,61.94
2023-04-18T22:18:33.902Z,61.06
2023-04-18T22:21:36.781Z,61.85
2023-04-18T22:24:40.619Z,61.31
2023-04-18T22:27:43.554Z,61.75
2023-04-18T22:30:46.129Z,61.54
2023-04-18T22:33:48.702Z,61.48
2023-04-18T22:36:51.287Z,61.83
2023-04-18T22:39:55.227Z,61.35
2023-04-18T22:42:57.847Z,62.56
2023-04-18T22:46:00.699Z,61.52
2023-04-18T22:49:03.305Z,61.50
2023-04-18T22:52:06.196Z,61.06
2023-04-18T22:55:11.008Z,61.06
2023-04-18T22:58:13.716Z,61.16
2023-04-18T23:01:16.400Z,61.57
2023-04-18T23:04:19.516Z,61.82
2023-04-18T23:07:22.434Z,61.97
2023-04-18T23:10:26.424Z,61.24
2023-04-18T23:13:29.025Z,61.23
2023-04-18T23:16:32.422Z,61.30
2023-04-18T23:19:35.008Z,61.88
2023-04-18T23:22:38.450Z,61.34
2023-04-18T23:25:42.285Z,61.81
2023-04-18T23:28:44.942Z,61.34
2023-04-18T23:31:47.597Z,61.27
2023-04-18T23:34:50.234Z,62.03
2023-04-18T23:37:52.853Z,61.78
2023-04-18T23:40:56.702Z,62.72
2023-04-18T23:44:00.082Z,62.68
2023-04-18T23:47:02.682Z,62.00
2023-04-18T23:50:06.073Z,62.24
2023-04-18T23:53:08.610Z,62.98
2023-04-18T23:56:12.479Z,63.42
2023-04-18T23:59:15.031Z,63.50
